sensor_id;sensor_type;location;lat;lon;timestamp;P1;durP1;ratioP1;P2;durP2;ratioP2
50519;SDS011;36468;44.098;3.078;2022-10-18T00:01:14;18.00;;;3.25;;
50519;SDS011;36468;44.098;3.078;2022-10-18T00:03:40;15.25;;;3.70;;
50519;SDS011;36468;44.098;3.078;2022-10-18T00:06:06;13.50;;;3.40;;
50519;SDS011;36468;44.098;3.078;2022-10-18T00:08:36;22.00;;;3.58;;
50519;SDS011;36468;44.098;3.078;2022-10-18T00:11:03;20.27;;;3.83;;
50519;SDS011;36468;44.098;3.078;2022-10-18T00:13:29;22.20;;;3.40;;
50519;SDS011;36468;44.098;3.078;2022-10-18T00:15:59;15.38;;;3.63;;
50519;SDS011;36468;44.098;3.078;2022-10-18T00:18:26;17.88;;;3.30;;
50519;SDS011;36468;44.098;3.078;2022-10-18T00:21:13;19.42;;;3.40;;
50519;SDS011;36468;44.098;3.078;2022-10-18T00:23:39;15.43;;;3.08;;
50519;SDS011;36468;44.098;3.078;2022-10-18T00:26:10;12.85;;;3.15;;
50519;SDS011;36468;44.098;3.078;2022-10-18T00:28:36;21.88;;;3.65;;
50519;SDS011;36468;44.098;3.078;2022-10-18T00:31:10;21.48;;;3.67;;
50519;SDS011;36468;44.098;3.078;2022-10-18T00:33:36;17.65;;;3.53;;
50519;SDS011;36468;44.098;3.078;2022-10-18T00:36:02;17.70;;;3.17;;
50519;SDS011;36468;44.098;3.078;2022-10-18T00:38:28;16.63;;;3.15;;
50519;SDS011;36468;44.098;3.078;2022-10-18T00:40:54;14.32;;;2.92;;
50519;SDS011;36468;44.098;3.078;2022-10-18T00:43:20;13.77;;;3.13;;
50519;SDS011;36468;44.098;3.078;2022-10-18T00:45:46;18.48;;;3.00;;
50519;SDS011;36468;44.098;3.078;2022-10-18T00:48:13;16.00;;;3.08;;
50519;SDS011;36468;44.098;3.078;2022-10-18T00:50:40;12.80;;;3.28;;
50519;SDS011;36468;44.098;3.078;2022-10-18T00:53:07;11.75;;;2.97;;
50519;SDS011;36468;44.098;3.078;2022-10-18T00:55:34;14.48;;;2.88;;
50519;SDS011;36468;44.098;3.078;2022-10-18T00:58:00;16.05;;;3.28;;
50519;SDS011;36468;44.098;3.078;2022-10-18T01:00:28;15.45;;;3.25;;
50519;SDS011;36468;44.098;3.078;2022-10-18T01:02:54;12.45;;;3.33;;
50519;SDS011;36468;44.098;3.078;2022-10-18T01:05:20;17.25;;;3.08;;
50519;SDS011;36468;44.098;3.078;2022-10-18T01:30:45;13.15;;;3.20;;
50519;SDS011;36468;44.098;3.078;2022-10-18T01:35:42;12.82;;;3.60;;
50519;SDS011;36468;44.098;3.078;2022-10-18T01:38:10;14.48;;;3.13;;
50519;SDS011;36468;44.098;3.078;2022-10-18T01:40:38;16.40;;;3.58;;
50519;SDS011;36468;44.098;3.078;2022-10-18T01:43:05;17.20;;;3.80;;
50519;SDS011;36468;44.098;3.078;2022-10-18T01:45:33;13.15;;;2.80;;
50519;SDS011;36468;44.098;3.078;2022-10-18T01:47:59;22.85;;;4.35;;
50519;SDS011;36468;44.098;3.078;2022-10-18T01:50:29;18.38;;;3.30;;
50519;SDS011;36468;44.098;3.078;2022-10-18T01:52:55;15.55;;;3.40;;
50519;SDS011;36468;44.098;3.078;2022-10-18T01:55:24;14.38;;;3.17;;
50519;SDS011;36468;44.098;3.078;2022-10-18T01:57:56;14.30;;;3.13;;
50519;SDS011;36468;44.098;3.078;2022-10-18T02:00:26;13.80;;;3.00;;
50519;SDS011;36468;44.098;3.078;2022-10-18T02:02:56;16.13;;;3.33;;
50519;SDS011;36468;44.098;3.078;2022-10-18T02:10:40;15.35;;;3.45;;
50519;SDS011;36468;44.098;3.078;2022-10-18T02:13:09;11.23;;;2.83;;
50519;SDS011;36468;44.098;3.078;2022-10-18T02:15:39;14.68;;;2.83;;
50519;SDS011;36468;44.098;3.078;2022-10-18T02:18:15;11.65;;;3.10;;
50519;SDS011;36468;44.098;3.078;2022-10-18T02:20:43;13.13;;;3.53;;
50519;SDS011;36468;44.098;3.078;2022-10-18T02:23:10;19.30;;;3.38;;
50519;SDS011;36468;44.098;3.078;2022-10-18T02:25:36;15.77;;;2.97;;
50519;SDS011;36468;44.098;3.078;2022-10-18T02:28:03;17.23;;;3.00;;
50519;SDS011;36468;44.098;3.078;2022-10-18T02:30:32;11.20;;;3.10;;
50519;SDS011;36468;44.098;3.078;2022-10-18T02:33:04;14.55;;;3.40;;
50519;SDS011;36468;44.098;3.078;2022-10-18T02:35:35;11.93;;;3.13;;
50519;SDS011;36468;44.098;3.078;2022-10-18T02:38:03;13.50;;;3.35;;
50519;SDS011;36468;44.098;3.078;2022-10-18T02:40:30;18.85;;;3.40;;
50519;SDS011;36468;44.098;3.078;2022-10-18T02:42:57;11.80;;;3.55;;
50519;SDS011;36468;44.098;3.078;2022-10-18T02:45:23;14.18;;;3.08;;
50519;SDS011;36468;44.098;3.078;2022-10-18T02:47:50;18.55;;;3.65;;
50519;SDS011;36468;44.098;3.078;2022-10-18T02:50:16;9.80;;;3.17;;
50519;SDS011;36468;44.098;3.078;2022-10-18T02:52:42;27.50;;;12.23;;
50519;SDS011;36468;44.098;3.078;2022-10-18T02:55:08;22.35;;;5.22;;
50519;SDS011;36468;44.098;3.078;2022-10-18T02:57:35;33.85;;;14.80;;
50519;SDS011;36468;44.098;3.078;2022-10-18T03:00:02;36.60;;;15.20;;
50519;SDS011;36468;44.098;3.078;2022-10-18T03:02:28;222.27;;;115.57;;
50519;SDS011;36468;44.098;3.078;2022-10-18T03:04:54;189.02;;;91.53;;
50519;SDS011;36468;44.098;3.078;2022-10-18T03:07:20;200.82;;;99.47;;
50519;SDS011;36468;44.098;3.078;2022-10-18T03:09:46;360.67;;;157.30;;
50519;SDS011;36468;44.098;3.078;2022-10-18T03:12:12;506.48;;;276.67;;
50519;SDS011;36468;44.098;3.078;2022-10-18T03:14:38;531.33;;;311.40;;
50519;SDS011;36468;44.098;3.078;2022-10-18T03:17:04;96.30;;;42.60;;
50519;SDS011;36468;44.098;3.078;2022-10-18T03:19:30;93.15;;;45.95;;
50519;SDS011;36468;44.098;3.078;2022-10-18T03:21:56;128.65;;;71.82;;
50519;SDS011;36468;44.098;3.078;2022-10-18T03:24:22;26.73;;;11.15;;
50519;SDS011;36468;44.098;3.078;2022-10-18T03:26:48;60.17;;;31.05;;
50519;SDS011;36468;44.098;3.078;2022-10-18T03:29:14;60.13;;;23.58;;
50519;SDS011;36468;44.098;3.078;2022-10-18T03:31:40;62.88;;;22.48;;
50519;SDS011;36468;44.098;3.078;2022-10-18T03:34:06;22.02;;;5.07;;
50519;SDS011;36468;44.098;3.078;2022-10-18T03:36:32;15.65;;;3.75;;
50519;SDS011;36468;44.098;3.078;2022-10-18T03:38:59;22.02;;;8.00;;
50519;SDS011;36468;44.098;3.078;2022-10-18T03:41:25;19.95;;;6.88;;
50519;SDS011;36468;44.098;3.078;2022-10-18T03:43:51;17.60;;;4.85;;
50519;SDS011;36468;44.098;3.078;2022-10-18T03:46:17;22.88;;;12.38;;
50519;SDS011;36468;44.098;3.078;2022-10-18T03:48:43;38.72;;;16.92;;
50519;SDS011;36468;44.098;3.078;2022-10-18T03:51:09;37.65;;;15.95;;
50519;SDS011;36468;44.098;3.078;2022-10-18T03:53:35;41.63;;;18.02;;
50519;SDS011;36468;44.098;3.078;2022-10-18T03:56:01;282.85;;;107.13;;
50519;SDS011;36468;44.098;3.078;2022-10-18T03:58:27;58.58;;;20.55;;
50519;SDS011;36468;44.098;3.078;2022-10-18T04:00:53;205.25;;;81.65;;
50519;SDS011;36468;44.098;3.078;2022-10-18T04:03:20;36.20;;;12.35;;
50519;SDS011;36468;44.098;3.078;2022-10-18T04:05:47;65.07;;;35.83;;
50519;SDS011;36468;44.098;3.078;2022-10-18T04:08:13;22.75;;;12.15;;
50519;SDS011;36468;44.098;3.078;2022-10-18T04:10:40;14.18;;;3.65;;
50519;SDS011;36468;44.098;3.078;2022-10-18T04:13:06;18.50;;;3.10;;
50519;SDS011;36468;44.098;3.078;2022-10-18T04:15:32;16.48;;;2.70;;
50519;SDS011;36468;44.098;3.078;2022-10-18T04:17:59;15.50;;;3.03;;
50519;SDS011;36468;44.098;3.078;2022-10-18T04:20:25;13.75;;;2.90;;
50519;SDS011;36468;44.098;3.078;2022-10-18T04:22:51;15.48;;;3.28;;
50519;SDS011;36468;44.098;3.078;2022-10-18T04:25:19;17.25;;;3.28;;
50519;SDS011;36468;44.098;3.078;2022-10-18T04:27:45;14.95;;;2.90;;
50519;SDS011;36468;44.098;3.078;2022-10-18T04:30:11;12.63;;;3.03;;
50519;SDS011;36468;44.098;3.078;2022-10-18T04:32:37;16.48;;;3.53;;
50519;SDS011;36468;44.098;3.078;2022-10-18T04:35:04;15.73;;;3.53;;
50519;SDS011;36468;44.098;3.078;2022-10-18T04:37:30;16.50;;;3.90;;
50519;SDS011;36468;44.098;3.078;2022-10-18T04:39:56;14.40;;;3.60;;
50519;SDS011;36468;44.098;3.078;2022-10-18T04:42:22;17.45;;;2.90;;
50519;SDS011;36468;44.098;3.078;2022-10-18T04:44:49;11.23;;;3.45;;
50519;SDS011;36468;44.098;3.078;2022-10-18T04:47:15;15.20;;;3.65;;
50519;SDS011;36468;44.098;3.078;2022-10-18T04:49:42;56.45;;;21.95;;
50519;SDS011;36468;44.098;3.078;2022-10-18T04:52:08;142.65;;;61.13;;
50519;SDS011;36468;44.098;3.078;2022-10-18T04:54:34;63.22;;;25.38;;
50519;SDS011;36468;44.098;3.078;2022-10-18T04:57:00;105.85;;;54.25;;
50519;SDS011;36468;44.098;3.078;2022-10-18T04:59:26;55.38;;;22.73;;
50519;SDS011;36468;44.098;3.078;2022-10-18T05:01:52;35.20;;;12.60;;
50519;SDS011;36468;44.098;3.078;2022-10-18T05:04:18;25.35;;;8.45;;
50519;SDS011;36468;44.098;3.078;2022-10-18T05:06:44;14.15;;;3.90;;
50519;SDS011;36468;44.098;3.078;2022-10-18T05:09:10;28.10;;;11.13;;
50519;SDS011;36468;44.098;3.078;2022-10-18T05:11:36;19.20;;;4.32;;
50519;SDS011;36468;44.098;3.078;2022-10-18T05:14:02;75.07;;;26.10;;
50519;SDS011;36468;44.098;3.078;2022-10-18T05:16:29;19.80;;;4.85;;
50519;SDS011;36468;44.098;3.078;2022-10-18T05:18:56;42.78;;;15.07;;
50519;SDS011;36468;44.098;3.078;2022-10-18T05:21:22;22.33;;;4.40;;
50519;SDS011;36468;44.098;3.078;2022-10-18T05:23:48;69.55;;;19.48;;
50519;SDS011;36468;44.098;3.078;2022-10-18T05:26:14;53.20;;;19.58;;
50519;SDS011;36468;44.098;3.078;2022-10-18T05:28:40;34.55;;;11.00;;
50519;SDS011;36468;44.098;3.078;2022-10-18T05:31:07;20.58;;;5.93;;
50519;SDS011;36468;44.098;3.078;2022-10-18T05:33:33;32.08;;;9.00;;
50519;SDS011;36468;44.098;3.078;2022-10-18T05:36:00;17.75;;;5.35;;
50519;SDS011;36468;44.098;3.078;2022-10-18T05:38:26;19.70;;;3.80;;
50519;SDS011;36468;44.098;3.078;2022-10-18T05:40:54;20.40;;;3.67;;
50519;SDS011;36468;44.098;3.078;2022-10-18T05:43:20;10.65;;;3.35;;
50519;SDS011;36468;44.098;3.078;2022-10-18T05:45:47;57.70;;;19.52;;
50519;SDS011;36468;44.098;3.078;2022-10-18T05:48:13;199.23;;;62.60;;
50519;SDS011;36468;44.098;3.078;2022-10-18T05:50:39;129.20;;;39.08;;
50519;SDS011;36468;44.098;3.078;2022-10-18T05:53:06;61.67;;;16.23;;
50519;SDS011;36468;44.098;3.078;2022-10-18T05:55:32;23.90;;;5.15;;
50519;SDS011;36468;44.098;3.078;2022-10-18T05:57:58;29.45;;;8.30;;
50519;SDS011;36468;44.098;3.078;2022-10-18T06:00:24;12.70;;;4.38;;
50519;SDS011;36468;44.098;3.078;2022-10-18T06:02:50;16.60;;;3.60;;
50519;SDS011;36468;44.098;3.078;2022-10-18T06:05:16;38.85;;;9.60;;
50519;SDS011;36468;44.098;3.078;2022-10-18T06:07:42;80.38;;;24.63;;
50519;SDS011;36468;44.098;3.078;2022-10-18T06:10:08;94.55;;;32.30;;
50519;SDS011;36468;44.098;3.078;2022-10-18T06:12:34;42.85;;;13.98;;
50519;SDS011;36468;44.098;3.078;2022-10-18T06:15:00;28.17;;;6.45;;
50519;SDS011;36468;44.098;3.078;2022-10-18T06:17:26;35.38;;;10.75;;
50519;SDS011;36468;44.098;3.078;2022-10-18T06:19:52;31.02;;;8.45;;
50519;SDS011;36468;44.098;3.078;2022-10-18T06:22:19;68.32;;;23.10;;
50519;SDS011;36468;44.098;3.078;2022-10-18T06:24:45;53.40;;;16.80;;
50519;SDS011;36468;44.098;3.078;2022-10-18T06:27:11;71.80;;;24.58;;
50519;SDS011;36468;44.098;3.078;2022-10-18T06:29:37;31.73;;;8.98;;
50519;SDS011;36468;44.098;3.078;2022-10-18T06:32:04;40.67;;;11.82;;
50519;SDS011;36468;44.098;3.078;2022-10-18T06:34:31;23.02;;;6.13;;
50519;SDS011;36468;44.098;3.078;2022-10-18T06:36:57;27.48;;;6.15;;
50519;SDS011;36468;44.098;3.078;2022-10-18T06:39:23;22.35;;;6.38;;
50519;SDS011;36468;44.098;3.078;2022-10-18T06:41:49;25.48;;;5.85;;
50519;SDS011;36468;44.098;3.078;2022-10-18T06:44:16;15.88;;;3.28;;
50519;SDS011;36468;44.098;3.078;2022-10-18T06:46:45;18.65;;;3.55;;
50519;SDS011;36468;44.098;3.078;2022-10-18T06:49:11;13.20;;;3.20;;
50519;SDS011;36468;44.098;3.078;2022-10-18T06:51:38;17.13;;;3.95;;
50519;SDS011;36468;44.098;3.078;2022-10-18T06:54:04;21.40;;;3.78;;
50519;SDS011;36468;44.098;3.078;2022-10-18T06:56:30;14.07;;;2.92;;
50519;SDS011;36468;44.098;3.078;2022-10-18T06:58:56;7.95;;;2.38;;
50519;SDS011;36468;44.098;3.078;2022-10-18T07:01:22;15.68;;;4.07;;
50519;SDS011;36468;44.098;3.078;2022-10-18T07:03:51;20.05;;;4.57;;
50519;SDS011;36468;44.098;3.078;2022-10-18T07:06:17;18.95;;;3.25;;
50519;SDS011;36468;44.098;3.078;2022-10-18T07:08:44;17.30;;;3.13;;
50519;SDS011;36468;44.098;3.078;2022-10-18T07:11:17;13.18;;;3.47;;
50519;SDS011;36468;44.098;3.078;2022-10-18T07:13:43;15.13;;;3.83;;
50519;SDS011;36468;44.098;3.078;2022-10-18T07:16:10;41.42;;;15.07;;
50519;SDS011;36468;44.098;3.078;2022-10-18T07:18:41;22.88;;;6.13;;
50519;SDS011;36468;44.098;3.078;2022-10-18T07:21:08;424.52;;;181.48;;
50519;SDS011;36468;44.098;3.078;2022-10-18T07:23:35;126.05;;;52.92;;
50519;SDS011;36468;44.098;3.078;2022-10-18T07:26:03;25.85;;;8.43;;
50519;SDS011;36468;44.098;3.078;2022-10-18T07:28:29;41.47;;;15.88;;
50519;SDS011;36468;44.098;3.078;2022-10-18T07:30:55;123.22;;;54.72;;
50519;SDS011;36468;44.098;3.078;2022-10-18T07:33:21;128.00;;;56.65;;
50519;SDS011;36468;44.098;3.078;2022-10-18T07:35:48;248.57;;;118.25;;
50519;SDS011;36468;44.098;3.078;2022-10-18T07:38:14;101.10;;;44.03;;
50519;SDS011;36468;44.098;3.078;2022-10-18T07:40:40;52.70;;;18.48;;
50519;SDS011;36468;44.098;3.078;2022-10-18T07:43:06;74.07;;;30.42;;
50519;SDS011;36468;44.098;3.078;2022-10-18T07:45:32;55.38;;;21.23;;
50519;SDS011;36468;44.098;3.078;2022-10-18T07:47:58;57.80;;;18.35;;
50519;SDS011;36468;44.098;3.078;2022-10-18T07:50:24;223.98;;;104.25;;
50519;SDS011;36468;44.098;3.078;2022-10-18T07:52:50;120.38;;;49.42;;
50519;SDS011;36468;44.098;3.078;2022-10-18T07:55:16;158.63;;;75.95;;
50519;SDS011;36468;44.098;3.078;2022-10-18T07:57:42;93.25;;;40.80;;
50519;SDS011;36468;44.098;3.078;2022-10-18T08:00:09;117.30;;;52.92;;
50519;SDS011;36468;44.098;3.078;2022-10-18T08:02:35;128.70;;;61.75;;
50519;SDS011;36468;44.098;3.078;2022-10-18T08:05:01;103.20;;;48.03;;
50519;SDS011;36468;44.098;3.078;2022-10-18T08:07:27;73.63;;;32.00;;
50519;SDS011;36468;44.098;3.078;2022-10-18T08:09:53;158.00;;;67.53;;
50519;SDS011;36468;44.098;3.078;2022-10-18T08:12:19;160.13;;;76.03;;
50519;SDS011;36468;44.098;3.078;2022-10-18T08:14:45;70.65;;;32.47;;
50519;SDS011;36468;44.098;3.078;2022-10-18T08:17:11;32.25;;;13.25;;
50519;SDS011;36468;44.098;3.078;2022-10-18T08:19:37;29.38;;;11.95;;
50519;SDS011;36468;44.098;3.078;2022-10-18T08:22:03;17.58;;;5.20;;
50519;SDS011;36468;44.098;3.078;2022-10-18T08:24:29;23.70;;;4.53;;
50519;SDS011;36468;44.098;3.078;2022-10-18T08:26:56;19.67;;;4.13;;
50519;SDS011;36468;44.098;3.078;2022-10-18T08:29:22;18.10;;;4.25;;
50519;SDS011;36468;44.098;3.078;2022-10-18T08:31:48;16.30;;;4.90;;
50519;SDS011;36468;44.098;3.078;2022-10-18T08:34:14;11.63;;;3.90;;
50519;SDS011;36468;44.098;3.078;2022-10-18T08:36:41;17.42;;;4.35;;
50519;SDS011;36468;44.098;3.078;2022-10-18T08:39:07;16.10;;;3.55;;
50519;SDS011;36468;44.098;3.078;2022-10-18T08:46:38;10.90;;;3.20;;
50519;SDS011;36468;44.098;3.078;2022-10-18T08:49:05;12.23;;;2.95;;
50519;SDS011;36468;44.098;3.078;2022-10-18T08:56:26;12.02;;;2.70;;
50519;SDS011;36468;44.098;3.078;2022-10-18T08:58:52;8.40;;;2.33;;
50519;SDS011;36468;44.098;3.078;2022-10-18T09:08:42;6.47;;;2.05;;
50519;SDS011;36468;44.098;3.078;2022-10-18T09:16:07;9.23;;;2.13;;
50519;SDS011;36468;44.098;3.078;2022-10-18T09:21:23;9.18;;;2.25;;
50519;SDS011;36468;44.098;3.078;2022-10-18T09:24:34;10.15;;;2.42;;
50519;SDS011;36468;44.098;3.078;2022-10-18T09:26:47;11.18;;;2.28;;
50519;SDS011;36468;44.098;3.078;2022-10-18T09:31:43;12.50;;;2.60;;
50519;SDS011;36468;44.098;3.078;2022-10-18T09:34:19;13.10;;;2.40;;
50519;SDS011;36468;44.098;3.078;2022-10-18T09:36:49;8.38;;;2.05;;
50519;SDS011;36468;44.098;3.078;2022-10-18T09:39:17;7.45;;;1.88;;
50519;SDS011;36468;44.098;3.078;2022-10-18T09:41:48;13.13;;;2.55;;
50519;SDS011;36468;44.098;3.078;2022-10-18T09:44:22;12.93;;;2.63;;
50519;SDS011;36468;44.098;3.078;2022-10-18T09:47:00;7.95;;;2.00;;
50519;SDS011;36468;44.098;3.078;2022-10-18T09:49:31;9.77;;;2.42;;
50519;SDS011;36468;44.098;3.078;2022-10-18T09:51:58;11.13;;;2.05;;
50519;SDS011;36468;44.098;3.078;2022-10-18T09:54:29;8.68;;;2.30;;
50519;SDS011;36468;44.098;3.078;2022-10-18T09:57:01;12.23;;;2.00;;
50519;SDS011;36468;44.098;3.078;2022-10-18T09:59:33;13.75;;;2.42;;
50519;SDS011;36468;44.098;3.078;2022-10-18T10:02:00;11.20;;;1.83;;
50519;SDS011;36468;44.098;3.078;2022-10-18T10:04:26;8.73;;;2.15;;
50519;SDS011;36468;44.098;3.078;2022-10-18T10:06:53;11.07;;;2.10;;
50519;SDS011;36468;44.098;3.078;2022-10-18T10:09:23;12.85;;;2.28;;
50519;SDS011;36468;44.098;3.078;2022-10-18T10:11:50;10.13;;;2.30;;
50519;SDS011;36468;44.098;3.078;2022-10-18T10:16:45;14.15;;;2.97;;
50519;SDS011;36468;44.098;3.078;2022-10-18T10:19:23;11.30;;;2.92;;
50519;SDS011;36468;44.098;3.078;2022-10-18T10:21:50;13.68;;;4.20;;
50519;SDS011;36468;44.098;3.078;2022-10-18T10:24:52;12.80;;;3.00;;
50519;SDS011;36468;44.098;3.078;2022-10-18T10:27:20;11.15;;;2.50;;
50519;SDS011;36468;44.098;3.078;2022-10-18T10:29:50;13.80;;;2.63;;
50519;SDS011;36468;44.098;3.078;2022-10-18T10:32:20;10.90;;;1.95;;
50519;SDS011;36468;44.098;3.078;2022-10-18T10:34:48;12.35;;;2.75;;
50519;SDS011;36468;44.098;3.078;2022-10-18T10:37:22;5.03;;;1.75;;
50519;SDS011;36468;44.098;3.078;2022-10-18T10:45:16;9.00;;;2.20;;
50519;SDS011;36468;44.098;3.078;2022-10-18T10:47:42;9.68;;;2.00;;
50519;SDS011;36468;44.098;3.078;2022-10-18T10:50:09;8.40;;;2.03;;
50519;SDS011;36468;44.098;3.078;2022-10-18T10:52:36;11.85;;;2.70;;
50519;SDS011;36468;44.098;3.078;2022-10-18T10:55:04;9.75;;;2.42;;
50519;SDS011;36468;44.098;3.078;2022-10-18T10:57:30;7.03;;;1.85;;
50519;SDS011;36468;44.098;3.078;2022-10-18T10:59:57;13.07;;;2.78;;
50519;SDS011;36468;44.098;3.078;2022-10-18T11:02:34;11.63;;;2.40;;
50519;SDS011;36468;44.098;3.078;2022-10-18T11:07:45;7.72;;;1.92;;
50519;SDS011;36468;44.098;3.078;2022-10-18T11:10:15;8.00;;;2.90;;
50519;SDS011;36468;44.098;3.078;2022-10-18T11:12:45;14.73;;;2.80;;
50519;SDS011;36468;44.098;3.078;2022-10-18T11:15:23;9.65;;;1.95;;
50519;SDS011;36468;44.098;3.078;2022-10-18T11:18:01;13.77;;;2.83;;
50519;SDS011;36468;44.098;3.078;2022-10-18T11:20:36;10.73;;;2.17;;
50519;SDS011;36468;44.098;3.078;2022-10-18T11:23:10;7.95;;;1.90;;
50519;SDS011;36468;44.098;3.078;2022-10-18T11:33:39;8.27;;;1.80;;
50519;SDS011;36468;44.098;3.078;2022-10-18T11:36:09;6.25;;;1.60;;
50519;SDS011;36468;44.098;3.078;2022-10-18T11:38:40;8.68;;;2.38;;
50519;SDS011;36468;44.098;3.078;2022-10-18T11:43:44;7.95;;;1.98;;
50519;SDS011;36468;44.098;3.078;2022-10-18T11:56:58;6.63;;;1.60;;
50519;SDS011;36468;44.098;3.078;2022-10-18T11:59:36;9.25;;;1.98;;
50519;SDS011;36468;44.098;3.078;2022-10-18T12:04:42;7.82;;;1.65;;
50519;SDS011;36468;44.098;3.078;2022-10-18T12:07:09;8.43;;;2.13;;
50519;SDS011;36468;44.098;3.078;2022-10-18T12:09:39;7.90;;;1.90;;
50519;SDS011;36468;44.098;3.078;2022-10-18T12:17:10;8.00;;;2.00;;
50519;SDS011;36468;44.098;3.078;2022-10-18T12:19:40;6.13;;;1.90;;
50519;SDS011;36468;44.098;3.078;2022-10-18T12:22:11;10.45;;;3.35;;
50519;SDS011;36468;44.098;3.078;2022-10-18T12:24:38;6.93;;;2.33;;
50519;SDS011;36468;44.098;3.078;2022-10-18T12:27:05;9.65;;;2.40;;
50519;SDS011;36468;44.098;3.078;2022-10-18T12:29:36;9.60;;;2.67;;
50519;SDS011;36468;44.098;3.078;2022-10-18T12:32:11;11.77;;;2.58;;
50519;SDS011;36468;44.098;3.078;2022-10-18T12:40:16;9.05;;;2.17;;
50519;SDS011;36468;44.098;3.078;2022-10-18T12:42:45;7.82;;;1.80;;
50519;SDS011;36468;44.098;3.078;2022-10-18T12:47:38;7.50;;;1.98;;
50519;SDS011;36468;44.098;3.078;2022-10-18T12:50:06;5.28;;;2.05;;
50519;SDS011;36468;44.098;3.078;2022-10-18T12:52:32;7.75;;;2.35;;
50519;SDS011;36468;44.098;3.078;2022-10-18T12:57:27;8.52;;;2.50;;
50519;SDS011;36468;44.098;3.078;2022-10-18T13:16:49;12.52;;;2.50;;
50519;SDS011;36468;44.098;3.078;2022-10-18T13:18:59;9.70;;;2.05;;
50519;SDS011;36468;44.098;3.078;2022-10-18T13:30:00;7.57;;;1.95;;
50519;SDS011;36468;44.098;3.078;2022-10-18T13:32:34;8.30;;;1.95;;
50519;SDS011;36468;44.098;3.078;2022-10-18T13:35:01;9.88;;;1.98;;
50519;SDS011;36468;44.098;3.078;2022-10-18T13:37:28;8.00;;;2.00;;
50519;SDS011;36468;44.098;3.078;2022-10-18T13:42:39;11.05;;;2.30;;
50519;SDS011;36468;44.098;3.078;2022-10-18T13:47:50;6.88;;;2.10;;
50519;SDS011;36468;44.098;3.078;2022-10-18T13:50:49;8.32;;;2.70;;
50519;SDS011;36468;44.098;3.078;2022-10-18T13:56:15;6.53;;;2.00;;
50519;SDS011;36468;44.098;3.078;2022-10-18T14:01:19;6.47;;;2.22;;
50519;SDS011;36468;44.098;3.078;2022-10-18T14:06:19;7.45;;;2.45;;
50519;SDS011;36468;44.098;3.078;2022-10-18T14:09:00;8.57;;;2.17;;
50519;SDS011;36468;44.098;3.078;2022-10-18T14:13:54;8.00;;;2.25;;
50519;SDS011;36468;44.098;3.078;2022-10-18T14:18:50;11.23;;;2.60;;
50519;SDS011;36468;44.098;3.078;2022-10-18T14:21:20;8.60;;;2.03;;
50519;SDS011;36468;44.098;3.078;2022-10-18T14:23:49;4.77;;;2.20;;
50519;SDS011;36468;44.098;3.078;2022-10-18T14:26:16;9.02;;;2.38;;
50519;SDS011;36468;44.098;3.078;2022-10-18T14:28:42;10.93;;;2.55;;
50519;SDS011;36468;44.098;3.078;2022-10-18T14:31:12;11.55;;;2.80;;
50519;SDS011;36468;44.098;3.078;2022-10-18T14:33:43;9.48;;;2.50;;
50519;SDS011;36468;44.098;3.078;2022-10-18T14:36:14;8.38;;;2.22;;
50519;SDS011;36468;44.098;3.078;2022-10-18T14:38:57;8.15;;;2.25;;
50519;SDS011;36468;44.098;3.078;2022-10-18T14:41:28;9.05;;;2.70;;
50519;SDS011;36468;44.098;3.078;2022-10-18T14:46:42;9.90;;;2.80;;
50519;SDS011;36468;44.098;3.078;2022-10-18T14:49:10;9.40;;;2.40;;
50519;SDS011;36468;44.098;3.078;2022-10-18T14:51:37;7.15;;;2.10;;
50519;SDS011;36468;44.098;3.078;2022-10-18T14:54:04;8.02;;;2.35;;
50519;SDS011;36468;44.098;3.078;2022-10-18T14:56:35;6.32;;;2.40;;
50519;SDS011;36468;44.098;3.078;2022-10-18T14:59:02;9.13;;;2.45;;
50519;SDS011;36468;44.098;3.078;2022-10-18T15:01:30;5.78;;;1.92;;
50519;SDS011;36468;44.098;3.078;2022-10-18T15:03:57;6.97;;;2.28;;
50519;SDS011;36468;44.098;3.078;2022-10-18T15:06:24;9.30;;;2.80;;
50519;SDS011;36468;44.098;3.078;2022-10-18T15:08:57;11.15;;;2.90;;
50519;SDS011;36468;44.098;3.078;2022-10-18T15:11:25;6.05;;;2.28;;
50519;SDS011;36468;44.098;3.078;2022-10-18T15:16:22;6.60;;;2.47;;
50519;SDS011;36468;44.098;3.078;2022-10-18T15:19:02;5.68;;;2.10;;
50519;SDS011;36468;44.098;3.078;2022-10-18T15:21:29;7.15;;;2.60;;
50519;SDS011;36468;44.098;3.078;2022-10-18T15:24:17;13.85;;;2.88;;
50519;SDS011;36468;44.098;3.078;2022-10-18T15:26:42;11.02;;;2.60;;
50519;SDS011;36468;44.098;3.078;2022-10-18T15:29:14;8.98;;;2.70;;
50519;SDS011;36468;44.098;3.078;2022-10-18T15:31:40;8.15;;;2.80;;
50519;SDS011;36468;44.098;3.078;2022-10-18T15:34:21;10.13;;;2.80;;
50519;SDS011;36468;44.098;3.078;2022-10-18T15:36:48;7.63;;;2.50;;
50519;SDS011;36468;44.098;3.078;2022-10-18T15:39:16;10.20;;;2.90;;
50519;SDS011;36468;44.098;3.078;2022-10-18T15:41:47;9.57;;;2.75;;
50519;SDS011;36468;44.098;3.078;2022-10-18T15:46:40;9.93;;;3.00;;
50519;SDS011;36468;44.098;3.078;2022-10-18T15:54:35;9.43;;;2.85;;
50519;SDS011;36468;44.098;3.078;2022-10-18T15:57:08;10.70;;;3.08;;
50519;SDS011;36468;44.098;3.078;2022-10-18T15:59:34;12.30;;;3.58;;
50519;SDS011;36468;44.098;3.078;2022-10-18T16:02:02;10.45;;;3.40;;
50519;SDS011;36468;44.098;3.078;2022-10-18T16:04:31;6.45;;;2.72;;
50519;SDS011;36468;44.098;3.078;2022-10-18T16:06:58;12.35;;;3.13;;
50519;SDS011;36468;44.098;3.078;2022-10-18T16:09:25;14.93;;;2.80;;
50519;SDS011;36468;44.098;3.078;2022-10-18T16:11:51;11.80;;;3.55;;
50519;SDS011;36468;44.098;3.078;2022-10-18T16:14:18;12.27;;;3.22;;
50519;SDS011;36468;44.098;3.078;2022-10-18T16:16:44;8.30;;;3.58;;
50519;SDS011;36468;44.098;3.078;2022-10-18T16:19:14;9.65;;;3.40;;
50519;SDS011;36468;44.098;3.078;2022-10-18T16:21:43;10.68;;;3.40;;
50519;SDS011;36468;44.098;3.078;2022-10-18T16:24:09;12.18;;;3.35;;
50519;SDS011;36468;44.098;3.078;2022-10-18T16:26:35;20.05;;;3.90;;
50519;SDS011;36468;44.098;3.078;2022-10-18T16:29:02;15.25;;;3.58;;
50519;SDS011;36468;44.098;3.078;2022-10-18T16:31:29;13.85;;;3.67;;
50519;SDS011;36468;44.098;3.078;2022-10-18T16:33:56;8.77;;;3.80;;
50519;SDS011;36468;44.098;3.078;2022-10-18T16:36:23;12.43;;;3.83;;
50519;SDS011;36468;44.098;3.078;2022-10-18T16:38:50;12.77;;;3.17;;
50519;SDS011;36468;44.098;3.078;2022-10-18T16:41:16;11.65;;;3.22;;
50519;SDS011;36468;44.098;3.078;2022-10-18T16:43:43;10.27;;;3.90;;
50519;SDS011;36468;44.098;3.078;2022-10-18T16:46:14;14.13;;;4.22;;
50519;SDS011;36468;44.098;3.078;2022-10-18T16:48:41;13.13;;;3.47;;
50519;SDS011;36468;44.098;3.078;2022-10-18T16:51:07;11.65;;;4.00;;
50519;SDS011;36468;44.098;3.078;2022-10-18T16:53:34;10.50;;;3.70;;
50519;SDS011;36468;44.098;3.078;2022-10-18T16:56:01;16.15;;;4.38;;
50519;SDS011;36468;44.098;3.078;2022-10-18T16:58:28;13.70;;;3.58;;
50519;SDS011;36468;44.098;3.078;2022-10-18T17:00:55;16.83;;;4.10;;
50519;SDS011;36468;44.098;3.078;2022-10-18T17:03:21;13.95;;;3.53;;
50519;SDS011;36468;44.098;3.078;2022-10-18T17:05:47;11.95;;;4.10;;
50519;SDS011;36468;44.098;3.078;2022-10-18T17:08:21;13.95;;;4.50;;
50519;SDS011;36468;44.098;3.078;2022-10-18T17:10:47;14.18;;;3.42;;
50519;SDS011;36468;44.098;3.078;2022-10-18T17:13:14;11.68;;;3.40;;
50519;SDS011;36468;44.098;3.078;2022-10-18T17:15:40;8.43;;;3.30;;
50519;SDS011;36468;44.098;3.078;2022-10-18T17:18:10;10.70;;;3.83;;
50519;SDS011;36468;44.098;3.078;2022-10-18T17:20:37;20.25;;;4.07;;
50519;SDS011;36468;44.098;3.078;2022-10-18T17:23:03;14.73;;;3.50;;